Upstream stations:
Downstream station:
SHEF ID: YUKO2 North Canadian River near Yukon,
STATION TYPE:
Regulating: Stage = 11.00, Flow = 3611
STAGE RIV-FLOW WTR-TEMP BAT-LOAD
ft cfs F volt
Ccp-Rev Ccp-Rev Ccp-Rev Ccp-Rev
(US/Central)
01/20 00:00 1.55 54 53.60 12.77
01/20 01:00 1.53 52 53.60 12.73
01/20 02:00 1.54 53 53.60 12.69
01/20 03:00 1.53 52 53.60 12.66
01/20 04:00 1.52 50 53.60 12.63
01/20 05:00 1.55 54 53.60 12.61
01/20 06:00 1.53 52 53.60 12.57
01/20 07:00 1.48 46 53.60 12.53
01/20 08:00 1.50 48 53.60 12.51
01/20 09:00 1.54 53 53.60 12.63
01/20 10:00 1.58 57 53.60 13.15
01/20 11:00 1.54 53 53.60 13.99
01/20 12:00 1.50 48 53.60 14.11
01/20 13:00 1.50 48 53.60 14.06
01/20 14:00 1.50 48 53.60 14.07
01/20 15:00 1.50 48 53.60 14.04
01/20 16:00 1.52 50 53.60 14.02
01/20 17:00 1.55 54 53.60 13.93
01/20 18:00 1.57 56 53.60 13.68
01/20 19:00 1.56 55 53.60 13.42
01/20 20:00 1.57 56 53.60 13.22
01/20 21:00 1.55 54 53.60 13.04
01/20 22:00 1.53 52 53.60 12.90
01/20 23:00 1.52 50 32.09 12.80